sensor_id;sensor_type;location;lat;lon;timestamp;P1;durP1;ratioP1;P2;durP2;ratioP2
75971;SDS011;64651;47.540;19.088;2023-04-07T00:00:32;28.30;;;12.85;;
75971;SDS011;64651;47.540;19.088;2023-04-07T00:05:34;31.17;;;13.82;;
75971;SDS011;64651;47.540;19.088;2023-04-07T00:10:36;29.90;;;13.85;;
75971;SDS011;64651;47.540;19.088;2023-04-07T00:15:38;27.98;;;12.93;;
75971;SDS011;64651;47.540;19.088;2023-04-07T00:20:41;30.87;;;14.87;;
75971;SDS011;64651;47.540;19.088;2023-04-07T00:25:43;28.42;;;13.38;;
75971;SDS011;64651;47.540;19.088;2023-04-07T00:30:45;29.77;;;13.90;;
75971;SDS011;64651;47.540;19.088;2023-04-07T00:35:47;29.52;;;13.48;;
75971;SDS011;64651;47.540;19.088;2023-04-07T00:40:55;27.52;;;13.73;;
75971;SDS011;64651;47.540;19.088;2023-04-07T00:45:58;28.83;;;13.83;;
75971;SDS011;64651;47.540;19.088;2023-04-07T00:51:01;27.62;;;13.45;;
75971;SDS011;64651;47.540;19.088;2023-04-07T00:56:04;30.50;;;14.35;;
75971;SDS011;64651;47.540;19.088;2023-04-07T01:06:32;28.60;;;12.93;;
75971;SDS011;64651;47.540;19.088;2023-04-07T01:17:10;28.65;;;13.77;;
75971;SDS011;64651;47.540;19.088;2023-04-07T01:22:17;27.02;;;12.93;;
75971;SDS011;64651;47.540;19.088;2023-04-07T01:28:04;27.42;;;13.15;;
75971;SDS011;64651;47.540;19.088;2023-04-07T01:33:03;28.10;;;13.27;;
75971;SDS011;64651;47.540;19.088;2023-04-07T01:38:08;26.27;;;12.70;;
75971;SDS011;64651;47.540;19.088;2023-04-07T01:43:11;25.83;;;13.05;;
75971;SDS011;64651;47.540;19.088;2023-04-07T01:48:15;29.45;;;13.65;;
75971;SDS011;64651;47.540;19.088;2023-04-07T01:53:18;26.65;;;13.32;;
75971;SDS011;64651;47.540;19.088;2023-04-07T01:58:21;29.20;;;13.15;;
75971;SDS011;64651;47.540;19.088;2023-04-07T02:03:27;27.03;;;12.37;;
75971;SDS011;64651;47.540;19.088;2023-04-07T02:08:32;29.15;;;13.18;;
75971;SDS011;64651;47.540;19.088;2023-04-07T02:13:40;23.98;;;11.50;;
75971;SDS011;64651;47.540;19.088;2023-04-07T02:18:44;27.30;;;13.02;;
75971;SDS011;64651;47.540;19.088;2023-04-07T02:23:47;26.87;;;12.27;;
75971;SDS011;64651;47.540;19.088;2023-04-07T02:28:49;26.70;;;13.07;;
75971;SDS011;64651;47.540;19.088;2023-04-07T02:33:51;25.62;;;12.25;;
75971;SDS011;64651;47.540;19.088;2023-04-07T02:38:54;25.52;;;11.93;;
75971;SDS011;64651;47.540;19.088;2023-04-07T02:43:56;24.27;;;11.95;;
75971;SDS011;64651;47.540;19.088;2023-04-07T02:48:59;26.35;;;12.85;;
75971;SDS011;64651;47.540;19.088;2023-04-07T02:54:01;26.03;;;11.83;;
75971;SDS011;64651;47.540;19.088;2023-04-07T02:59:03;28.02;;;12.95;;
75971;SDS011;64651;47.540;19.088;2023-04-07T03:04:06;26.10;;;11.63;;
75971;SDS011;64651;47.540;19.088;2023-04-07T03:09:08;24.52;;;11.52;;
75971;SDS011;64651;47.540;19.088;2023-04-07T03:14:10;27.75;;;12.73;;
75971;SDS011;64651;47.540;19.088;2023-04-07T03:19:14;27.70;;;12.37;;
75971;SDS011;64651;47.540;19.088;2023-04-07T03:24:17;25.75;;;12.40;;
75971;SDS011;64651;47.540;19.088;2023-04-07T03:29:19;26.85;;;12.18;;
75971;SDS011;64651;47.540;19.088;2023-04-07T03:34:21;26.27;;;12.93;;
75971;SDS011;64651;47.540;19.088;2023-04-07T03:39:23;27.13;;;13.35;;
75971;SDS011;64651;47.540;19.088;2023-04-07T03:44:26;25.43;;;12.10;;
75971;SDS011;64651;47.540;19.088;2023-04-07T03:49:28;27.85;;;13.20;;
75971;SDS011;64651;47.540;19.088;2023-04-07T03:54:32;26.67;;;12.35;;
75971;SDS011;64651;47.540;19.088;2023-04-07T03:59:36;26.33;;;12.88;;
75971;SDS011;64651;47.540;19.088;2023-04-07T04:04:38;26.90;;;12.43;;
75971;SDS011;64651;47.540;19.088;2023-04-07T04:09:40;27.63;;;13.17;;
75971;SDS011;64651;47.540;19.088;2023-04-07T04:14:43;27.25;;;13.18;;
75971;SDS011;64651;47.540;19.088;2023-04-07T04:19:45;28.58;;;13.55;;
75971;SDS011;64651;47.540;19.088;2023-04-07T04:24:47;28.33;;;13.65;;
75971;SDS011;64651;47.540;19.088;2023-04-07T04:29:50;26.52;;;12.88;;
75971;SDS011;64651;47.540;19.088;2023-04-07T04:34:53;29.70;;;13.13;;
75971;SDS011;64651;47.540;19.088;2023-04-07T04:39:55;29.27;;;13.73;;
75971;SDS011;64651;47.540;19.088;2023-04-07T04:44:57;28.20;;;13.52;;
75971;SDS011;64651;47.540;19.088;2023-04-07T04:49:59;29.15;;;13.43;;
75971;SDS011;64651;47.540;19.088;2023-04-07T04:55:02;28.87;;;12.77;;
75971;SDS011;64651;47.540;19.088;2023-04-07T05:00:05;29.27;;;13.70;;
75971;SDS011;64651;47.540;19.088;2023-04-07T05:05:08;28.33;;;13.65;;
75971;SDS011;64651;47.540;19.088;2023-04-07T05:10:11;29.77;;;13.32;;
75971;SDS011;64651;47.540;19.088;2023-04-07T05:15:13;27.73;;;13.80;;
75971;SDS011;64651;47.540;19.088;2023-04-07T05:20:16;26.48;;;12.13;;
75971;SDS011;64651;47.540;19.088;2023-04-07T05:25:18;28.77;;;13.50;;
75971;SDS011;64651;47.540;19.088;2023-04-07T05:30:20;25.60;;;13.15;;
75971;SDS011;64651;47.540;19.088;2023-04-07T05:35:23;26.65;;;12.52;;
75971;SDS011;64651;47.540;19.088;2023-04-07T05:40:25;27.42;;;13.27;;
75971;SDS011;64651;47.540;19.088;2023-04-07T05:45:27;28.48;;;13.55;;
75971;SDS011;64651;47.540;19.088;2023-04-07T05:50:29;28.00;;;13.40;;
75971;SDS011;64651;47.540;19.088;2023-04-07T05:55:32;29.17;;;13.52;;
75971;SDS011;64651;47.540;19.088;2023-04-07T06:00:34;27.73;;;14.27;;
75971;SDS011;64651;47.540;19.088;2023-04-07T06:05:36;25.98;;;13.30;;
75971;SDS011;64651;47.540;19.088;2023-04-07T06:10:38;28.55;;;13.55;;
75971;SDS011;64651;47.540;19.088;2023-04-07T06:15:42;27.17;;;13.53;;
75971;SDS011;64651;47.540;19.088;2023-04-07T06:20:44;27.87;;;13.50;;
75971;SDS011;64651;47.540;19.088;2023-04-07T06:25:46;26.50;;;13.18;;
75971;SDS011;64651;47.540;19.088;2023-04-07T06:30:52;27.45;;;13.35;;
75971;SDS011;64651;47.540;19.088;2023-04-07T06:35:54;28.73;;;13.60;;
75971;SDS011;64651;47.540;19.088;2023-04-07T06:40:57;27.00;;;13.50;;
75971;SDS011;64651;47.540;19.088;2023-04-07T06:45:59;27.30;;;13.05;;
75971;SDS011;64651;47.540;19.088;2023-04-07T06:51:01;28.05;;;13.75;;
75971;SDS011;64651;47.540;19.088;2023-04-07T06:56:08;26.67;;;13.35;;
75971;SDS011;64651;47.540;19.088;2023-04-07T07:01:12;26.67;;;13.93;;
75971;SDS011;64651;47.540;19.088;2023-04-07T07:06:14;26.40;;;13.47;;
75971;SDS011;64651;47.540;19.088;2023-04-07T07:11:16;27.65;;;13.32;;
75971;SDS011;64651;47.540;19.088;2023-04-07T07:16:19;27.37;;;13.00;;
75971;SDS011;64651;47.540;19.088;2023-04-07T07:21:21;25.77;;;12.65;;
75971;SDS011;64651;47.540;19.088;2023-04-07T07:26:23;24.30;;;12.75;;
75971;SDS011;64651;47.540;19.088;2023-04-07T07:31:27;26.80;;;14.10;;
75971;SDS011;64651;47.540;19.088;2023-04-07T07:36:29;27.55;;;12.77;;
75971;SDS011;64651;47.540;19.088;2023-04-07T07:41:33;27.15;;;13.23;;
75971;SDS011;64651;47.540;19.088;2023-04-07T07:46:35;27.15;;;13.35;;
75971;SDS011;64651;47.540;19.088;2023-04-07T07:51:37;29.00;;;14.07;;
75971;SDS011;64651;47.540;19.088;2023-04-07T07:56:39;25.17;;;13.63;;
75971;SDS011;64651;47.540;19.088;2023-04-07T08:01:44;28.00;;;13.18;;
75971;SDS011;64651;47.540;19.088;2023-04-07T08:06:49;25.55;;;13.82;;
75971;SDS011;64651;47.540;19.088;2023-04-07T08:11:54;24.50;;;13.60;;
75971;SDS011;64651;47.540;19.088;2023-04-07T08:16:58;25.20;;;13.62;;
75971;SDS011;64651;47.540;19.088;2023-04-07T08:22:00;25.37;;;13.43;;
75971;SDS011;64651;47.540;19.088;2023-04-07T08:27:03;24.75;;;13.43;;
75971;SDS011;64651;47.540;19.088;2023-04-07T08:32:05;26.60;;;13.65;;
75971;SDS011;64651;47.540;19.088;2023-04-07T08:37:07;24.80;;;13.35;;
75971;SDS011;64651;47.540;19.088;2023-04-07T08:42:10;24.45;;;13.50;;
75971;SDS011;64651;47.540;19.088;2023-04-07T08:47:17;30.13;;;15.07;;
75971;SDS011;64651;47.540;19.088;2023-04-07T08:52:43;28.08;;;14.07;;
75971;SDS011;64651;47.540;19.088;2023-04-07T08:57:49;28.10;;;14.52;;
75971;SDS011;64651;47.540;19.088;2023-04-07T09:02:53;26.98;;;14.43;;
75971;SDS011;64651;47.540;19.088;2023-04-07T09:07:55;27.05;;;14.63;;
75971;SDS011;64651;47.540;19.088;2023-04-07T09:12:58;26.30;;;14.70;;
75971;SDS011;64651;47.540;19.088;2023-04-07T09:18:00;25.73;;;13.23;;
75971;SDS011;64651;47.540;19.088;2023-04-07T09:23:03;27.37;;;14.80;;
75971;SDS011;64651;47.540;19.088;2023-04-07T09:28:05;26.83;;;15.23;;
75971;SDS011;64651;47.540;19.088;2023-04-07T09:33:07;25.45;;;14.27;;
75971;SDS011;64651;47.540;19.088;2023-04-07T09:38:17;27.83;;;14.33;;
75971;SDS011;64651;47.540;19.088;2023-04-07T09:43:19;25.62;;;13.68;;
75971;SDS011;64651;47.540;19.088;2023-04-07T09:48:21;24.60;;;12.80;;
75971;SDS011;64651;47.540;19.088;2023-04-07T09:53:46;24.98;;;13.70;;
75971;SDS011;64651;47.540;19.088;2023-04-07T09:58:51;24.17;;;13.10;;
75971;SDS011;64651;47.540;19.088;2023-04-07T10:03:54;22.70;;;12.63;;
75971;SDS011;64651;47.540;19.088;2023-04-07T10:08:57;23.10;;;12.93;;
75971;SDS011;64651;47.540;19.088;2023-04-07T10:13:59;23.77;;;13.13;;
75971;SDS011;64651;47.540;19.088;2023-04-07T10:19:02;23.70;;;13.23;;
75971;SDS011;64651;47.540;19.088;2023-04-07T10:29:25;21.47;;;12.27;;
75971;SDS011;64651;47.540;19.088;2023-04-07T10:39:51;20.65;;;12.18;;
75971;SDS011;64651;47.540;19.088;2023-04-07T10:56:08;20.53;;;12.43;;
75971;SDS011;64651;47.540;19.088;2023-04-07T11:06:14;23.02;;;12.63;;
75971;SDS011;64651;47.540;19.088;2023-04-07T11:11:33;22.10;;;12.57;;
75971;SDS011;64651;47.540;19.088;2023-04-07T11:16:41;22.27;;;13.13;;
75971;SDS011;64651;47.540;19.088;2023-04-07T11:21:44;20.87;;;12.40;;
75971;SDS011;64651;47.540;19.088;2023-04-07T11:26:47;23.65;;;13.55;;
75971;SDS011;64651;47.540;19.088;2023-04-07T11:31:51;23.42;;;13.40;;
75971;SDS011;64651;47.540;19.088;2023-04-07T11:36:53;23.38;;;12.85;;
75971;SDS011;64651;47.540;19.088;2023-04-07T11:42:00;23.42;;;12.68;;
75971;SDS011;64651;47.540;19.088;2023-04-07T11:47:02;22.90;;;12.70;;
75971;SDS011;64651;47.540;19.088;2023-04-07T11:52:06;24.08;;;13.77;;
75971;SDS011;64651;47.540;19.088;2023-04-07T11:57:08;25.17;;;13.48;;
75971;SDS011;64651;47.540;19.088;2023-04-07T12:02:29;25.77;;;13.70;;
75971;SDS011;64651;47.540;19.088;2023-04-07T12:07:38;25.23;;;13.07;;
75971;SDS011;64651;47.540;19.088;2023-04-07T12:12:53;24.20;;;12.90;;
75971;SDS011;64651;47.540;19.088;2023-04-07T12:17:56;24.37;;;13.13;;
75971;SDS011;64651;47.540;19.088;2023-04-07T12:22:58;25.90;;;13.55;;
75971;SDS011;64651;47.540;19.088;2023-04-07T12:28:01;27.08;;;14.05;;
75971;SDS011;64651;47.540;19.088;2023-04-07T12:33:03;27.87;;;14.65;;
75971;SDS011;64651;47.540;19.088;2023-04-07T12:38:06;26.67;;;14.20;;
75971;SDS011;64651;47.540;19.088;2023-04-07T12:43:09;28.87;;;14.60;;
75971;SDS011;64651;47.540;19.088;2023-04-07T12:48:11;27.58;;;14.35;;
75971;SDS011;64651;47.540;19.088;2023-04-07T12:53:14;27.42;;;14.00;;
75971;SDS011;64651;47.540;19.088;2023-04-07T12:58:16;27.37;;;14.45;;
75971;SDS011;64651;47.540;19.088;2023-04-07T13:03:19;27.17;;;14.40;;
75971;SDS011;64651;47.540;19.088;2023-04-07T13:08:22;25.42;;;14.38;;
75971;SDS011;64651;47.540;19.088;2023-04-07T13:13:24;28.60;;;14.93;;
75971;SDS011;64651;47.540;19.088;2023-04-07T13:18:26;25.30;;;13.23;;
75971;SDS011;64651;47.540;19.088;2023-04-07T13:23:28;27.37;;;13.98;;
75971;SDS011;64651;47.540;19.088;2023-04-07T13:28:43;25.97;;;14.33;;
75971;SDS011;64651;47.540;19.088;2023-04-07T13:33:46;26.58;;;13.88;;
75971;SDS011;64651;47.540;19.088;2023-04-07T13:38:49;30.77;;;15.75;;
75971;SDS011;64651;47.540;19.088;2023-04-07T13:43:51;28.52;;;14.95;;
75971;SDS011;64651;47.540;19.088;2023-04-07T13:48:54;28.58;;;14.40;;
75971;SDS011;64651;47.540;19.088;2023-04-07T13:53:57;29.23;;;14.57;;
75971;SDS011;64651;47.540;19.088;2023-04-07T13:58:59;28.48;;;15.50;;
75971;SDS011;64651;47.540;19.088;2023-04-07T14:04:01;27.95;;;15.18;;
75971;SDS011;64651;47.540;19.088;2023-04-07T14:09:04;28.48;;;14.63;;
75971;SDS011;64651;47.540;19.088;2023-04-07T14:14:07;29.17;;;15.15;;
75971;SDS011;64651;47.540;19.088;2023-04-07T14:19:09;31.87;;;14.97;;
75971;SDS011;64651;47.540;19.088;2023-04-07T14:24:11;30.17;;;15.73;;
75971;SDS011;64651;47.540;19.088;2023-04-07T14:29:14;32.65;;;16.02;;
75971;SDS011;64651;47.540;19.088;2023-04-07T14:34:16;29.30;;;15.68;;
75971;SDS011;64651;47.540;19.088;2023-04-07T14:39:19;31.45;;;16.67;;
75971;SDS011;64651;47.540;19.088;2023-04-07T14:44:23;31.53;;;16.17;;
75971;SDS011;64651;47.540;19.088;2023-04-07T14:49:25;30.25;;;14.85;;
75971;SDS011;64651;47.540;19.088;2023-04-07T14:54:29;31.95;;;16.35;;
75971;SDS011;64651;47.540;19.088;2023-04-07T14:59:31;30.62;;;15.50;;
75971;SDS011;64651;47.540;19.088;2023-04-07T15:04:33;30.30;;;15.25;;
75971;SDS011;64651;47.540;19.088;2023-04-07T15:09:36;30.90;;;15.73;;
75971;SDS011;64651;47.540;19.088;2023-04-07T15:14:38;30.48;;;15.77;;
75971;SDS011;64651;47.540;19.088;2023-04-07T15:19:41;31.92;;;16.65;;
75971;SDS011;64651;47.540;19.088;2023-04-07T15:24:43;31.02;;;15.10;;
75971;SDS011;64651;47.540;19.088;2023-04-07T15:29:45;31.52;;;16.33;;
75971;SDS011;64651;47.540;19.088;2023-04-07T15:34:48;29.90;;;15.23;;
75971;SDS011;64651;47.540;19.088;2023-04-07T15:39:50;31.85;;;16.08;;
75971;SDS011;64651;47.540;19.088;2023-04-07T15:44:53;31.48;;;16.55;;
75971;SDS011;64651;47.540;19.088;2023-04-07T15:49:57;29.58;;;14.85;;
75971;SDS011;64651;47.540;19.088;2023-04-07T15:54:59;31.10;;;16.23;;
75971;SDS011;64651;47.540;19.088;2023-04-07T16:00:01;31.47;;;15.23;;
75971;SDS011;64651;47.540;19.088;2023-04-07T16:05:04;30.73;;;15.85;;
75971;SDS011;64651;47.540;19.088;2023-04-07T16:10:06;33.58;;;16.05;;
75971;SDS011;64651;47.540;19.088;2023-04-07T16:15:09;35.97;;;16.50;;
75971;SDS011;64651;47.540;19.088;2023-04-07T16:20:12;34.20;;;17.45;;
75971;SDS011;64651;47.540;19.088;2023-04-07T16:25:18;34.63;;;16.60;;
75971;SDS011;64651;47.540;19.088;2023-04-07T16:30:20;33.22;;;16.80;;
75971;SDS011;64651;47.540;19.088;2023-04-07T16:35:28;31.23;;;16.10;;
75971;SDS011;64651;47.540;19.088;2023-04-07T16:40:32;34.70;;;17.35;;
75971;SDS011;64651;47.540;19.088;2023-04-07T16:45:35;33.90;;;16.85;;
75971;SDS011;64651;47.540;19.088;2023-04-07T16:50:40;34.03;;;16.43;;
75971;SDS011;64651;47.540;19.088;2023-04-07T16:55:43;37.42;;;17.30;;
75971;SDS011;64651;47.540;19.088;2023-04-07T17:00:45;36.60;;;17.48;;
75971;SDS011;64651;47.540;19.088;2023-04-07T17:05:47;36.35;;;16.75;;
75971;SDS011;64651;47.540;19.088;2023-04-07T17:10:51;39.08;;;18.00;;
75971;SDS011;64651;47.540;19.088;2023-04-07T17:15:53;35.87;;;17.57;;
75971;SDS011;64651;47.540;19.088;2023-04-07T17:20:55;35.65;;;16.85;;
75971;SDS011;64651;47.540;19.088;2023-04-07T17:25:58;33.45;;;16.02;;
75971;SDS011;64651;47.540;19.088;2023-04-07T17:31:00;34.90;;;16.52;;
75971;SDS011;64651;47.540;19.088;2023-04-07T17:36:03;36.20;;;16.77;;
75971;SDS011;64651;47.540;19.088;2023-04-07T17:41:06;36.43;;;17.57;;
75971;SDS011;64651;47.540;19.088;2023-04-07T17:46:08;35.38;;;16.42;;
75971;SDS011;64651;47.540;19.088;2023-04-07T17:51:10;35.47;;;16.40;;
75971;SDS011;64651;47.540;19.088;2023-04-07T17:56:14;33.95;;;15.75;;
75971;SDS011;64651;47.540;19.088;2023-04-07T18:01:16;33.25;;;16.40;;
75971;SDS011;64651;47.540;19.088;2023-04-07T18:06:19;36.00;;;16.73;;
75971;SDS011;64651;47.540;19.088;2023-04-07T18:11:21;35.38;;;15.82;;
75971;SDS011;64651;47.540;19.088;2023-04-07T18:16:23;33.90;;;16.55;;
75971;SDS011;64651;47.540;19.088;2023-04-07T18:21:26;32.08;;;15.55;;
75971;SDS011;64651;47.540;19.088;2023-04-07T18:26:30;32.80;;;16.83;;
75971;SDS011;64651;47.540;19.088;2023-04-07T18:31:32;36.10;;;16.07;;
75971;SDS011;64651;47.540;19.088;2023-04-07T18:36:34;32.95;;;15.95;;
75971;SDS011;64651;47.540;19.088;2023-04-07T18:41:40;31.37;;;14.68;;
75971;SDS011;64651;47.540;19.088;2023-04-07T18:46:45;30.73;;;14.68;;
75971;SDS011;64651;47.540;19.088;2023-04-07T18:51:47;33.45;;;15.48;;
75971;SDS011;64651;47.540;19.088;2023-04-07T18:56:49;35.07;;;15.77;;
75971;SDS011;64651;47.540;19.088;2023-04-07T19:01:52;34.92;;;15.35;;
75971;SDS011;64651;47.540;19.088;2023-04-07T19:06:57;35.45;;;15.65;;
75971;SDS011;64651;47.540;19.088;2023-04-07T19:11:59;33.88;;;15.00;;
75971;SDS011;64651;47.540;19.088;2023-04-07T19:17:01;34.22;;;15.82;;
75971;SDS011;64651;47.540;19.088;2023-04-07T19:22:04;35.50;;;15.90;;
75971;SDS011;64651;47.540;19.088;2023-04-07T19:27:06;35.97;;;16.65;;
75971;SDS011;64651;47.540;19.088;2023-04-07T19:32:08;35.33;;;15.80;;
75971;SDS011;64651;47.540;19.088;2023-04-07T19:37:11;37.13;;;16.27;;
75971;SDS011;64651;47.540;19.088;2023-04-07T19:42:14;35.78;;;16.02;;
75971;SDS011;64651;47.540;19.088;2023-04-07T19:47:16;39.77;;;16.80;;
75971;SDS011;64651;47.540;19.088;2023-04-07T19:52:19;37.10;;;16.08;;
75971;SDS011;64651;47.540;19.088;2023-04-07T19:57:21;37.42;;;16.50;;
75971;SDS011;64651;47.540;19.088;2023-04-07T20:02:23;38.80;;;16.67;;
75971;SDS011;64651;47.540;19.088;2023-04-07T20:07:27;37.08;;;17.05;;
75971;SDS011;64651;47.540;19.088;2023-04-07T20:12:29;37.87;;;17.33;;
75971;SDS011;64651;47.540;19.088;2023-04-07T20:17:31;38.40;;;16.48;;
75971;SDS011;64651;47.540;19.088;2023-04-07T20:22:33;43.10;;;19.55;;
75971;SDS011;64651;47.540;19.088;2023-04-07T20:27:36;41.10;;;17.90;;
75971;SDS011;64651;47.540;19.088;2023-04-07T20:32:39;43.67;;;19.02;;
75971;SDS011;64651;47.540;19.088;2023-04-07T20:37:42;42.33;;;18.87;;
75971;SDS011;64651;47.540;19.088;2023-04-07T20:42:45;42.65;;;19.08;;
75971;SDS011;64651;47.540;19.088;2023-04-07T20:47:47;41.95;;;18.42;;
75971;SDS011;64651;47.540;19.088;2023-04-07T20:52:50;51.35;;;23.23;;
75971;SDS011;64651;47.540;19.088;2023-04-07T20:57:53;48.65;;;21.33;;
75971;SDS011;64651;47.540;19.088;2023-04-07T21:02:55;40.30;;;18.13;;
75971;SDS011;64651;47.540;19.088;2023-04-07T21:07:58;39.28;;;17.87;;
75971;SDS011;64651;47.540;19.088;2023-04-07T21:13:01;36.30;;;16.45;;
75971;SDS011;64651;47.540;19.088;2023-04-07T21:18:04;40.10;;;17.92;;
75971;SDS011;64651;47.540;19.088;2023-04-07T21:23:06;39.28;;;16.37;;
75971;SDS011;64651;47.540;19.088;2023-04-07T21:28:09;34.17;;;14.63;;
75971;SDS011;64651;47.540;19.088;2023-04-07T21:33:13;34.08;;;15.20;;
75971;SDS011;64651;47.540;19.088;2023-04-07T21:38:17;30.35;;;13.48;;
75971;SDS011;64651;47.540;19.088;2023-04-07T21:43:19;32.33;;;14.15;;
75971;SDS011;64651;47.540;19.088;2023-04-07T21:48:22;34.83;;;14.85;;
75971;SDS011;64651;47.540;19.088;2023-04-07T21:53:25;32.07;;;15.07;;
75971;SDS011;64651;47.540;19.088;2023-04-07T21:58:28;31.37;;;13.70;;
75971;SDS011;64651;47.540;19.088;2023-04-07T22:03:30;30.98;;;13.88;;
75971;SDS011;64651;47.540;19.088;2023-04-07T22:08:33;29.95;;;13.50;;
75971;SDS011;64651;47.540;19.088;2023-04-07T22:13:35;33.78;;;14.02;;
75971;SDS011;64651;47.540;19.088;2023-04-07T22:18:37;32.17;;;14.60;;
75971;SDS011;64651;47.540;19.088;2023-04-07T22:23:39;31.05;;;13.23;;
75971;SDS011;64651;47.540;19.088;2023-04-07T22:28:42;32.85;;;14.18;;
75971;SDS011;64651;47.540;19.088;2023-04-07T22:33:44;29.73;;;13.38;;
75971;SDS011;64651;47.540;19.088;2023-04-07T22:38:46;30.25;;;13.27;;
75971;SDS011;64651;47.540;19.088;2023-04-07T22:43:49;32.17;;;14.13;;
75971;SDS011;64651;47.540;19.088;2023-04-07T22:48:51;29.30;;;12.88;;
75971;SDS011;64651;47.540;19.088;2023-04-07T22:53:53;31.62;;;13.00;;
75971;SDS011;64651;47.540;19.088;2023-04-07T22:58:55;30.60;;;13.20;;
75971;SDS011;64651;47.540;19.088;2023-04-07T23:04:06;28.15;;;12.32;;
75971;SDS011;64651;47.540;19.088;2023-04-07T23:09:08;28.03;;;12.07;;
75971;SDS011;64651;47.540;19.088;2023-04-07T23:14:11;26.77;;;11.43;;
75971;SDS011;64651;47.540;19.088;2023-04-07T23:19:13;27.48;;;10.98;;
75971;SDS011;64651;47.540;19.088;2023-04-07T23:24:16;24.98;;;9.95;;
75971;SDS011;64651;47.540;19.088;2023-04-07T23:29:18;26.50;;;10.73;;
75971;SDS011;64651;47.540;19.088;2023-04-07T23:34:21;24.43;;;10.33;;
75971;SDS011;64651;47.540;19.088;2023-04-07T23:39:23;24.50;;;10.50;;
75971;SDS011;64651;47.540;19.088;2023-04-07T23:44:26;23.20;;;10.90;;
75971;SDS011;64651;47.540;19.088;2023-04-07T23:49:28;26.30;;;11.20;;
75971;SDS011;64651;47.540;19.088;2023-04-07T23:54:30;24.73;;;10.32;;
75971;SDS011;64651;47.540;19.088;2023-04-07T23:59:32;25.60;;;10.50;;
